sensor_id;sensor_type;location;lat;lon;timestamp;P1;durP1;ratioP1;P2;durP2;ratioP2
66179;SDS011;52986;44.028;20.466;2023-02-01T00:01:55;98.18;;;39.03;;
66179;SDS011;52986;44.028;20.466;2023-02-01T00:04:21;85.00;;;33.67;;
66179;SDS011;52986;44.028;20.466;2023-02-01T00:06:47;90.55;;;35.05;;
66179;SDS011;52986;44.028;20.466;2023-02-01T00:09:12;83.75;;;31.50;;
66179;SDS011;52986;44.028;20.466;2023-02-01T00:11:38;85.07;;;33.80;;
66179;SDS011;52986;44.028;20.466;2023-02-01T00:14:04;78.55;;;31.85;;
66179;SDS011;52986;44.028;20.466;2023-02-01T00:16:29;70.22;;;28.20;;
66179;SDS011;52986;44.028;20.466;2023-02-01T00:18:57;69.13;;;27.63;;
66179;SDS011;52986;44.028;20.466;2023-02-01T00:21:28;74.15;;;29.48;;
66179;SDS011;52986;44.028;20.466;2023-02-01T00:23:54;57.75;;;24.00;;
66179;SDS011;52986;44.028;20.466;2023-02-01T00:26:36;50.47;;;21.08;;
66179;SDS011;52986;44.028;20.466;2023-02-01T00:29:04;57.65;;;23.73;;
66179;SDS011;52986;44.028;20.466;2023-02-01T00:31:31;57.05;;;23.27;;
66179;SDS011;52986;44.028;20.466;2023-02-01T00:33:57;54.50;;;23.10;;
66179;SDS011;52986;44.028;20.466;2023-02-01T00:36:22;58.83;;;25.95;;
66179;SDS011;52986;44.028;20.466;2023-02-01T00:38:48;52.42;;;22.60;;
66179;SDS011;52986;44.028;20.466;2023-02-01T00:41:19;50.25;;;21.30;;
66179;SDS011;52986;44.028;20.466;2023-02-01T00:43:46;39.80;;;15.55;;
66179;SDS011;52986;44.028;20.466;2023-02-01T00:46:12;39.85;;;16.60;;
66179;SDS011;52986;44.028;20.466;2023-02-01T00:48:40;36.25;;;17.08;;
66179;SDS011;52986;44.028;20.466;2023-02-01T00:51:07;33.85;;;14.13;;
66179;SDS011;52986;44.028;20.466;2023-02-01T00:53:35;34.15;;;14.27;;
66179;SDS011;52986;44.028;20.466;2023-02-01T00:56:01;31.65;;;13.30;;
66179;SDS011;52986;44.028;20.466;2023-02-01T00:58:26;29.27;;;10.98;;
66179;SDS011;52986;44.028;20.466;2023-02-01T01:01:02;24.33;;;10.80;;
66179;SDS011;52986;44.028;20.466;2023-02-01T01:03:31;25.58;;;10.07;;
66179;SDS011;52986;44.028;20.466;2023-02-01T01:05:59;22.33;;;9.10;;
66179;SDS011;52986;44.028;20.466;2023-02-01T01:08:25;23.75;;;9.88;;
66179;SDS011;52986;44.028;20.466;2023-02-01T01:10:50;27.25;;;10.68;;
66179;SDS011;52986;44.028;20.466;2023-02-01T01:13:16;31.80;;;12.85;;
66179;SDS011;52986;44.028;20.466;2023-02-01T01:15:41;27.20;;;10.95;;
66179;SDS011;52986;44.028;20.466;2023-02-01T01:18:07;29.38;;;11.90;;
66179;SDS011;52986;44.028;20.466;2023-02-01T01:20:36;28.77;;;11.23;;
66179;SDS011;52986;44.028;20.466;2023-02-01T01:23:03;27.80;;;11.10;;
66179;SDS011;52986;44.028;20.466;2023-02-01T01:25:29;26.77;;;11.32;;
66179;SDS011;52986;44.028;20.466;2023-02-01T01:27:55;29.80;;;11.05;;
66179;SDS011;52986;44.028;20.466;2023-02-01T01:30:20;26.75;;;11.20;;
66179;SDS011;52986;44.028;20.466;2023-02-01T01:32:45;27.02;;;10.63;;
66179;SDS011;52986;44.028;20.466;2023-02-01T01:35:11;24.85;;;9.65;;
66179;SDS011;52986;44.028;20.466;2023-02-01T01:37:36;19.33;;;8.32;;
66179;SDS011;52986;44.028;20.466;2023-02-01T01:40:03;20.85;;;8.90;;
66179;SDS011;52986;44.028;20.466;2023-02-01T01:42:29;21.25;;;9.32;;
66179;SDS011;52986;44.028;20.466;2023-02-01T01:44:56;33.92;;;13.13;;
66179;SDS011;52986;44.028;20.466;2023-02-01T01:47:26;47.35;;;18.27;;
66179;SDS011;52986;44.028;20.466;2023-02-01T01:49:54;64.50;;;24.70;;
66179;SDS011;52986;44.028;20.466;2023-02-01T01:52:20;64.28;;;26.13;;
66179;SDS011;52986;44.028;20.466;2023-02-01T01:54:54;69.68;;;27.17;;
66179;SDS011;52986;44.028;20.466;2023-02-01T01:57:23;61.70;;;25.10;;
66179;SDS011;52986;44.028;20.466;2023-02-01T02:00:00;60.50;;;24.67;;
66179;SDS011;52986;44.028;20.466;2023-02-01T02:02:32;57.95;;;22.48;;
66179;SDS011;52986;44.028;20.466;2023-02-01T02:04:58;47.80;;;19.85;;
66179;SDS011;52986;44.028;20.466;2023-02-01T02:07:25;51.58;;;19.63;;
66179;SDS011;52986;44.028;20.466;2023-02-01T02:09:53;50.80;;;19.70;;
66179;SDS011;52986;44.028;20.466;2023-02-01T02:12:19;47.80;;;18.15;;
66179;SDS011;52986;44.028;20.466;2023-02-01T02:14:44;47.17;;;18.20;;
66179;SDS011;52986;44.028;20.466;2023-02-01T02:34:34;54.45;;;20.55;;
66179;SDS011;52986;44.028;20.466;2023-02-01T02:37:19;48.45;;;18.88;;
66179;SDS011;52986;44.028;20.466;2023-02-01T02:39:59;47.45;;;17.48;;
66179;SDS011;52986;44.028;20.466;2023-02-01T02:42:34;41.65;;;16.67;;
66179;SDS011;52986;44.028;20.466;2023-02-01T02:45:28;38.47;;;14.85;;
66179;SDS011;52986;44.028;20.466;2023-02-01T02:51:00;33.83;;;14.13;;
66179;SDS011;52986;44.028;20.466;2023-02-01T02:56:48;34.47;;;14.43;;
66179;SDS011;52986;44.028;20.466;2023-02-01T02:59:34;37.00;;;15.80;;
66179;SDS011;52986;44.028;20.466;2023-02-01T03:02:20;40.03;;;15.27;;
66179;SDS011;52986;44.028;20.466;2023-02-01T03:05:05;35.92;;;14.15;;
66179;SDS011;52986;44.028;20.466;2023-02-01T03:07:48;32.10;;;13.30;;
66179;SDS011;52986;44.028;20.466;2023-02-01T03:13:12;33.20;;;13.35;;
66179;SDS011;52986;44.028;20.466;2023-02-01T03:16:22;35.17;;;14.48;;
66179;SDS011;52986;44.028;20.466;2023-02-01T03:21:43;38.08;;;16.35;;
66179;SDS011;52986;44.028;20.466;2023-02-01T03:24:23;39.03;;;15.50;;
66179;SDS011;52986;44.028;20.466;2023-02-01T03:26:58;42.28;;;16.10;;
66179;SDS011;52986;44.028;20.466;2023-02-01T03:29:32;43.58;;;17.75;;
66179;SDS011;52986;44.028;20.466;2023-02-01T03:32:03;40.13;;;16.67;;
66179;SDS011;52986;44.028;20.466;2023-02-01T03:34:29;37.75;;;15.23;;
66179;SDS011;52986;44.028;20.466;2023-02-01T03:37:03;38.67;;;16.40;;
66179;SDS011;52986;44.028;20.466;2023-02-01T03:39:41;36.97;;;14.93;;
66179;SDS011;52986;44.028;20.466;2023-02-01T03:42:14;37.00;;;14.63;;
66179;SDS011;52986;44.028;20.466;2023-02-01T03:44:47;36.95;;;15.23;;
66179;SDS011;52986;44.028;20.466;2023-02-01T03:47:23;41.80;;;16.95;;
66179;SDS011;52986;44.028;20.466;2023-02-01T03:50:02;40.75;;;17.77;;
66179;SDS011;52986;44.028;20.466;2023-02-01T03:52:39;39.17;;;16.58;;
66179;SDS011;52986;44.028;20.466;2023-02-01T03:55:08;40.17;;;16.38;;
66179;SDS011;52986;44.028;20.466;2023-02-01T03:57:37;36.95;;;14.85;;
66179;SDS011;52986;44.028;20.466;2023-02-01T04:00:19;36.92;;;16.63;;
66179;SDS011;52986;44.028;20.466;2023-02-01T04:02:47;35.28;;;15.18;;
66179;SDS011;52986;44.028;20.466;2023-02-01T04:05:12;40.33;;;16.35;;
66179;SDS011;52986;44.028;20.466;2023-02-01T04:07:38;35.60;;;15.25;;
66179;SDS011;52986;44.028;20.466;2023-02-01T04:10:03;43.50;;;17.25;;
66179;SDS011;52986;44.028;20.466;2023-02-01T04:12:29;36.03;;;15.00;;
66179;SDS011;52986;44.028;20.466;2023-02-01T04:14:54;38.00;;;16.33;;
66179;SDS011;52986;44.028;20.466;2023-02-01T04:17:20;32.70;;;13.70;;
66179;SDS011;52986;44.028;20.466;2023-02-01T04:19:45;29.27;;;11.88;;
66179;SDS011;52986;44.028;20.466;2023-02-01T04:22:11;33.20;;;13.02;;
66179;SDS011;52986;44.028;20.466;2023-02-01T04:24:37;35.53;;;14.30;;
66179;SDS011;52986;44.028;20.466;2023-02-01T04:27:02;33.58;;;15.13;;
66179;SDS011;52986;44.028;20.466;2023-02-01T04:29:28;45.10;;;19.45;;
66179;SDS011;52986;44.028;20.466;2023-02-01T04:31:53;43.13;;;17.25;;
66179;SDS011;52986;44.028;20.466;2023-02-01T04:34:19;45.95;;;18.13;;
66179;SDS011;52986;44.028;20.466;2023-02-01T04:36:44;43.80;;;17.00;;
66179;SDS011;52986;44.028;20.466;2023-02-01T04:39:09;33.30;;;13.63;;
66179;SDS011;52986;44.028;20.466;2023-02-01T04:41:35;33.40;;;13.55;;
66179;SDS011;52986;44.028;20.466;2023-02-01T04:44:01;33.97;;;13.77;;
66179;SDS011;52986;44.028;20.466;2023-02-01T04:46:26;36.30;;;14.55;;
66179;SDS011;52986;44.028;20.466;2023-02-01T04:48:51;38.63;;;15.18;;
66179;SDS011;52986;44.028;20.466;2023-02-01T04:51:20;36.53;;;15.18;;
66179;SDS011;52986;44.028;20.466;2023-02-01T04:53:45;37.03;;;14.77;;
66179;SDS011;52986;44.028;20.466;2023-02-01T04:56:17;42.25;;;17.77;;
66179;SDS011;52986;44.028;20.466;2023-02-01T04:58:45;39.15;;;16.67;;
66179;SDS011;52986;44.028;20.466;2023-02-01T05:01:10;38.40;;;16.33;;
66179;SDS011;52986;44.028;20.466;2023-02-01T05:03:36;45.08;;;17.73;;
66179;SDS011;52986;44.028;20.466;2023-02-01T05:06:01;44.20;;;19.40;;
66179;SDS011;52986;44.028;20.466;2023-02-01T05:08:29;49.00;;;20.27;;
66179;SDS011;52986;44.028;20.466;2023-02-01T05:10:54;53.95;;;22.92;;
66179;SDS011;52986;44.028;20.466;2023-02-01T05:13:20;56.08;;;24.85;;
66179;SDS011;52986;44.028;20.466;2023-02-01T05:16:03;54.40;;;23.05;;
66179;SDS011;52986;44.028;20.466;2023-02-01T05:18:29;56.22;;;23.55;;
66179;SDS011;52986;44.028;20.466;2023-02-01T05:20:55;68.57;;;28.23;;
66179;SDS011;52986;44.028;20.466;2023-02-01T05:23:20;59.92;;;24.80;;
66179;SDS011;52986;44.028;20.466;2023-02-01T05:25:46;61.65;;;25.50;;
66179;SDS011;52986;44.028;20.466;2023-02-01T05:28:11;70.25;;;27.08;;
66179;SDS011;52986;44.028;20.466;2023-02-01T05:30:37;62.42;;;25.42;;
66179;SDS011;52986;44.028;20.466;2023-02-01T05:33:02;54.25;;;21.50;;
66179;SDS011;52986;44.028;20.466;2023-02-01T05:35:28;53.78;;;22.50;;
66179;SDS011;52986;44.028;20.466;2023-02-01T05:37:53;56.33;;;23.88;;
66179;SDS011;52986;44.028;20.466;2023-02-01T05:40:19;55.03;;;24.35;;
66179;SDS011;52986;44.028;20.466;2023-02-01T05:42:44;55.03;;;23.80;;
66179;SDS011;52986;44.028;20.466;2023-02-01T05:45:10;51.00;;;21.80;;
66179;SDS011;52986;44.028;20.466;2023-02-01T05:47:35;56.08;;;23.75;;
66179;SDS011;52986;44.028;20.466;2023-02-01T05:50:01;52.65;;;21.05;;
66179;SDS011;52986;44.028;20.466;2023-02-01T05:52:28;50.97;;;21.00;;
66179;SDS011;52986;44.028;20.466;2023-02-01T05:54:53;52.50;;;20.85;;
66179;SDS011;52986;44.028;20.466;2023-02-01T05:57:18;51.50;;;20.83;;
66179;SDS011;52986;44.028;20.466;2023-02-01T05:59:44;53.17;;;22.50;;
66179;SDS011;52986;44.028;20.466;2023-02-01T06:02:11;53.63;;;20.58;;
66179;SDS011;52986;44.028;20.466;2023-02-01T06:04:42;71.18;;;28.02;;
66179;SDS011;52986;44.028;20.466;2023-02-01T06:07:17;56.90;;;24.63;;
66179;SDS011;52986;44.028;20.466;2023-02-01T06:09:42;48.17;;;21.77;;
66179;SDS011;52986;44.028;20.466;2023-02-01T06:12:08;53.58;;;21.20;;
66179;SDS011;52986;44.028;20.466;2023-02-01T06:14:33;54.83;;;23.08;;
66179;SDS011;52986;44.028;20.466;2023-02-01T06:16:59;68.03;;;30.50;;
66179;SDS011;52986;44.028;20.466;2023-02-01T06:19:25;64.32;;;26.15;;
66179;SDS011;52986;44.028;20.466;2023-02-01T06:21:50;64.82;;;27.00;;
66179;SDS011;52986;44.028;20.466;2023-02-01T06:24:16;62.75;;;25.27;;
66179;SDS011;52986;44.028;20.466;2023-02-01T06:26:41;63.70;;;26.73;;
66179;SDS011;52986;44.028;20.466;2023-02-01T06:29:07;53.72;;;22.55;;
66179;SDS011;52986;44.028;20.466;2023-02-01T06:31:34;73.30;;;29.30;;
66179;SDS011;52986;44.028;20.466;2023-02-01T06:34:00;60.30;;;24.02;;
66179;SDS011;52986;44.028;20.466;2023-02-01T06:36:25;54.97;;;21.83;;
66179;SDS011;52986;44.028;20.466;2023-02-01T06:38:50;48.33;;;19.63;;
66179;SDS011;52986;44.028;20.466;2023-02-01T06:41:16;49.28;;;19.05;;
66179;SDS011;52986;44.028;20.466;2023-02-01T06:43:42;53.00;;;21.70;;
66179;SDS011;52986;44.028;20.466;2023-02-01T06:46:09;58.72;;;26.33;;
66179;SDS011;52986;44.028;20.466;2023-02-01T06:48:37;74.57;;;33.53;;
66179;SDS011;52986;44.028;20.466;2023-02-01T06:51:03;68.10;;;30.27;;
66179;SDS011;52986;44.028;20.466;2023-02-01T06:53:28;93.03;;;45.25;;
66179;SDS011;52986;44.028;20.466;2023-02-01T06:55:55;78.53;;;37.60;;
66179;SDS011;52986;44.028;20.466;2023-02-01T06:58:22;78.28;;;37.15;;
66179;SDS011;52986;44.028;20.466;2023-02-01T07:00:47;67.57;;;33.35;;
66179;SDS011;52986;44.028;20.466;2023-02-01T07:03:13;67.50;;;31.52;;
66179;SDS011;52986;44.028;20.466;2023-02-01T07:05:39;63.65;;;29.27;;
66179;SDS011;52986;44.028;20.466;2023-02-01T07:08:04;58.95;;;28.67;;
66179;SDS011;52986;44.028;20.466;2023-02-01T07:10:29;64.50;;;30.90;;
66179;SDS011;52986;44.028;20.466;2023-02-01T07:12:58;61.03;;;29.65;;
66179;SDS011;52986;44.028;20.466;2023-02-01T07:15:26;60.00;;;29.25;;
66179;SDS011;52986;44.028;20.466;2023-02-01T07:17:54;56.03;;;26.85;;
66179;SDS011;52986;44.028;20.466;2023-02-01T07:20:19;63.83;;;29.13;;
66179;SDS011;52986;44.028;20.466;2023-02-01T07:22:45;62.78;;;29.25;;
66179;SDS011;52986;44.028;20.466;2023-02-01T07:25:10;70.78;;;32.63;;
66179;SDS011;52986;44.028;20.466;2023-02-01T07:27:36;50.42;;;23.92;;
66179;SDS011;52986;44.028;20.466;2023-02-01T07:30:02;39.80;;;18.55;;
66179;SDS011;52986;44.028;20.466;2023-02-01T07:32:29;38.97;;;17.48;;
66179;SDS011;52986;44.028;20.466;2023-02-01T07:34:54;39.97;;;19.98;;
66179;SDS011;52986;44.028;20.466;2023-02-01T07:37:20;38.22;;;18.98;;
66179;SDS011;52986;44.028;20.466;2023-02-01T07:39:45;41.88;;;20.17;;
66179;SDS011;52986;44.028;20.466;2023-02-01T07:42:11;44.15;;;21.90;;
66179;SDS011;52986;44.028;20.466;2023-02-01T07:44:36;42.90;;;21.15;;
66179;SDS011;52986;44.028;20.466;2023-02-01T07:47:01;38.67;;;18.48;;
66179;SDS011;52986;44.028;20.466;2023-02-01T07:49:27;36.88;;;16.45;;
66179;SDS011;52986;44.028;20.466;2023-02-01T07:51:52;49.67;;;26.85;;
66179;SDS011;52986;44.028;20.466;2023-02-01T07:54:18;43.25;;;21.90;;
66179;SDS011;52986;44.028;20.466;2023-02-01T07:56:43;45.28;;;24.60;;
66179;SDS011;52986;44.028;20.466;2023-02-01T07:59:09;44.75;;;22.42;;
66179;SDS011;52986;44.028;20.466;2023-02-01T08:01:35;49.40;;;25.70;;
66179;SDS011;52986;44.028;20.466;2023-02-01T08:04:01;62.42;;;32.83;;
66179;SDS011;52986;44.028;20.466;2023-02-01T08:06:32;47.72;;;25.65;;
66179;SDS011;52986;44.028;20.466;2023-02-01T08:08:59;51.42;;;29.65;;
66179;SDS011;52986;44.028;20.466;2023-02-01T08:11:25;40.70;;;23.60;;
66179;SDS011;52986;44.028;20.466;2023-02-01T08:13:51;38.30;;;21.02;;
66179;SDS011;52986;44.028;20.466;2023-02-01T08:16:17;37.53;;;20.05;;
66179;SDS011;52986;44.028;20.466;2023-02-01T08:18:44;43.38;;;22.58;;
66179;SDS011;52986;44.028;20.466;2023-02-01T08:21:11;42.13;;;23.23;;
66179;SDS011;52986;44.028;20.466;2023-02-01T08:23:38;39.30;;;23.20;;
66179;SDS011;52986;44.028;20.466;2023-02-01T08:26:10;40.70;;;22.95;;
66179;SDS011;52986;44.028;20.466;2023-02-01T08:28:45;36.17;;;20.42;;
66179;SDS011;52986;44.028;20.466;2023-02-01T08:31:14;37.95;;;21.83;;
66179;SDS011;52986;44.028;20.466;2023-02-01T08:33:42;41.85;;;25.20;;
66179;SDS011;52986;44.028;20.466;2023-02-01T08:36:09;51.10;;;29.88;;
66179;SDS011;52986;44.028;20.466;2023-02-01T08:38:36;56.42;;;34.58;;
66179;SDS011;52986;44.028;20.466;2023-02-01T08:41:13;57.70;;;35.65;;
66179;SDS011;52986;44.028;20.466;2023-02-01T08:43:40;45.00;;;29.40;;
66179;SDS011;52986;44.028;20.466;2023-02-01T08:46:06;40.67;;;26.60;;
66179;SDS011;52986;44.028;20.466;2023-02-01T08:48:32;39.38;;;24.40;;
66179;SDS011;52986;44.028;20.466;2023-02-01T08:51:06;44.70;;;28.55;;
66179;SDS011;52986;44.028;20.466;2023-02-01T08:53:33;27.45;;;16.80;;
66179;SDS011;52986;44.028;20.466;2023-02-01T08:55:59;14.98;;;7.60;;
66179;SDS011;52986;44.028;20.466;2023-02-01T08:58:25;13.18;;;6.47;;
66179;SDS011;52986;44.028;20.466;2023-02-01T09:00:50;15.38;;;7.63;;
66179;SDS011;52986;44.028;20.466;2023-02-01T09:03:16;13.93;;;7.82;;
66179;SDS011;52986;44.028;20.466;2023-02-01T09:05:42;18.15;;;9.30;;
66179;SDS011;52986;44.028;20.466;2023-02-01T09:08:07;15.02;;;7.05;;
66179;SDS011;52986;44.028;20.466;2023-02-01T09:10:33;13.13;;;6.43;;
66179;SDS011;52986;44.028;20.466;2023-02-01T09:12:59;12.18;;;5.93;;
66179;SDS011;52986;44.028;20.466;2023-02-01T09:15:24;10.95;;;4.15;;
66179;SDS011;52986;44.028;20.466;2023-02-01T09:17:50;15.73;;;4.00;;
66179;SDS011;52986;44.028;20.466;2023-02-01T09:20:16;7.38;;;2.75;;
66179;SDS011;52986;44.028;20.466;2023-02-01T09:22:41;8.45;;;2.70;;
66179;SDS011;52986;44.028;20.466;2023-02-01T09:25:07;8.20;;;2.70;;
66179;SDS011;52986;44.028;20.466;2023-02-01T09:27:33;8.30;;;3.00;;
66179;SDS011;52986;44.028;20.466;2023-02-01T09:29:59;9.98;;;3.20;;
66179;SDS011;52986;44.028;20.466;2023-02-01T09:32:24;9.63;;;3.28;;
66179;SDS011;52986;44.028;20.466;2023-02-01T09:34:50;9.98;;;4.25;;
66179;SDS011;52986;44.028;20.466;2023-02-01T09:37:16;10.05;;;3.92;;
66179;SDS011;52986;44.028;20.466;2023-02-01T09:39:42;9.73;;;3.78;;
66179;SDS011;52986;44.028;20.466;2023-02-01T09:42:30;9.38;;;3.50;;
66179;SDS011;52986;44.028;20.466;2023-02-01T09:45:19;9.40;;;3.60;;
66179;SDS011;52986;44.028;20.466;2023-02-01T09:47:53;9.88;;;3.75;;
66179;SDS011;52986;44.028;20.466;2023-02-01T09:50:22;12.48;;;3.50;;
66179;SDS011;52986;44.028;20.466;2023-02-01T09:53:02;13.82;;;4.55;;
66179;SDS011;52986;44.028;20.466;2023-02-01T09:55:45;19.92;;;4.88;;
66179;SDS011;52986;44.028;20.466;2023-02-01T10:00:50;12.43;;;4.35;;
66179;SDS011;52986;44.028;20.466;2023-02-01T10:11:25;11.73;;;4.50;;
66179;SDS011;52986;44.028;20.466;2023-02-01T10:22:43;14.55;;;4.85;;
66179;SDS011;52986;44.028;20.466;2023-02-01T10:25:19;10.48;;;4.35;;
66179;SDS011;52986;44.028;20.466;2023-02-01T10:27:51;13.05;;;4.15;;
66179;SDS011;52986;44.028;20.466;2023-02-01T10:30:24;10.55;;;3.75;;
66179;SDS011;52986;44.028;20.466;2023-02-01T10:32:57;8.63;;;3.90;;
66179;SDS011;52986;44.028;20.466;2023-02-01T10:35:37;15.63;;;3.95;;
66179;SDS011;52986;44.028;20.466;2023-02-01T10:38:04;11.70;;;4.40;;
66179;SDS011;52986;44.028;20.466;2023-02-01T10:40:45;17.77;;;4.65;;
66179;SDS011;52986;44.028;20.466;2023-02-01T10:43:11;15.00;;;4.80;;
66179;SDS011;52986;44.028;20.466;2023-02-01T10:45:37;12.65;;;4.75;;
66179;SDS011;52986;44.028;20.466;2023-02-01T10:48:04;17.20;;;5.00;;
66179;SDS011;52986;44.028;20.466;2023-02-01T10:56:11;12.55;;;5.03;;
66179;SDS011;52986;44.028;20.466;2023-02-01T10:58:45;17.05;;;4.63;;
66179;SDS011;52986;44.028;20.466;2023-02-01T11:01:16;12.57;;;5.35;;
66179;SDS011;52986;44.028;20.466;2023-02-01T11:04:02;18.98;;;5.70;;
66179;SDS011;52986;44.028;20.466;2023-02-01T11:06:31;23.60;;;5.63;;
66179;SDS011;52986;44.028;20.466;2023-02-01T11:11:30;12.05;;;5.75;;
66179;SDS011;52986;44.028;20.466;2023-02-01T11:13:57;13.20;;;5.60;;
66179;SDS011;52986;44.028;20.466;2023-02-01T11:16:35;10.38;;;5.28;;
66179;SDS011;52986;44.028;20.466;2023-02-01T11:19:02;12.38;;;5.43;;
66179;SDS011;52986;44.028;20.466;2023-02-01T11:21:28;19.58;;;5.15;;
66179;SDS011;52986;44.028;20.466;2023-02-01T11:23:53;10.52;;;5.25;;
66179;SDS011;52986;44.028;20.466;2023-02-01T11:26:21;15.73;;;5.63;;
66179;SDS011;52986;44.028;20.466;2023-02-01T11:29:31;12.40;;;4.95;;
66179;SDS011;52986;44.028;20.466;2023-02-01T11:31:38;17.65;;;5.50;;
66179;SDS011;52986;44.028;20.466;2023-02-01T11:34:13;9.93;;;4.47;;
66179;SDS011;52986;44.028;20.466;2023-02-01T11:36:41;12.80;;;3.03;;
66179;SDS011;52986;44.028;20.466;2023-02-01T11:42:00;11.00;;;3.80;;
66179;SDS011;52986;44.028;20.466;2023-02-01T11:44:34;18.38;;;4.10;;
66179;SDS011;52986;44.028;20.466;2023-02-01T11:49:47;14.05;;;5.00;;
66179;SDS011;52986;44.028;20.466;2023-02-01T11:54:49;14.18;;;3.50;;
66179;SDS011;52986;44.028;20.466;2023-02-01T12:02:42;9.00;;;3.20;;
66179;SDS011;52986;44.028;20.466;2023-02-01T12:05:25;16.40;;;4.03;;
66179;SDS011;52986;44.028;20.466;2023-02-01T12:11:03;15.85;;;4.20;;
66179;SDS011;52986;44.028;20.466;2023-02-01T12:16:46;16.10;;;3.03;;
66179;SDS011;52986;44.028;20.466;2023-02-01T12:19:33;8.75;;;2.63;;
66179;SDS011;52986;44.028;20.466;2023-02-01T12:46:52;11.93;;;4.03;;
66179;SDS011;52986;44.028;20.466;2023-02-01T12:49:54;13.23;;;4.32;;
66179;SDS011;52986;44.028;20.466;2023-02-01T12:54:55;10.27;;;3.50;;
66179;SDS011;52986;44.028;20.466;2023-02-01T12:57:34;11.48;;;3.70;;
66179;SDS011;52986;44.028;20.466;2023-02-01T13:11:37;14.30;;;4.20;;
66179;SDS011;52986;44.028;20.466;2023-02-01T13:14:13;23.10;;;4.35;;
66179;SDS011;52986;44.028;20.466;2023-02-01T13:16:49;20.38;;;4.30;;
66179;SDS011;52986;44.028;20.466;2023-02-01T13:22:17;21.33;;;5.82;;
66179;SDS011;52986;44.028;20.466;2023-02-01T13:27:21;16.05;;;5.30;;
66179;SDS011;52986;44.028;20.466;2023-02-01T13:43:48;13.68;;;4.88;;
66179;SDS011;52986;44.028;20.466;2023-02-01T13:46:16;18.77;;;7.03;;
66179;SDS011;52986;44.028;20.466;2023-02-01T13:51:29;13.52;;;5.70;;
66179;SDS011;52986;44.028;20.466;2023-02-01T13:53:58;19.27;;;6.65;;
66179;SDS011;52986;44.028;20.466;2023-02-01T13:56:24;20.65;;;6.20;;
66179;SDS011;52986;44.028;20.466;2023-02-01T13:58:50;16.42;;;6.70;;
66179;SDS011;52986;44.028;20.466;2023-02-01T14:03:48;17.25;;;8.32;;
66179;SDS011;52986;44.028;20.466;2023-02-01T14:06:40;18.02;;;7.50;;
66179;SDS011;52986;44.028;20.466;2023-02-01T14:16:39;29.48;;;9.20;;
66179;SDS011;52986;44.028;20.466;2023-02-01T14:19:07;22.98;;;9.40;;
66179;SDS011;52986;44.028;20.466;2023-02-01T14:21:34;25.90;;;9.00;;
66179;SDS011;52986;44.028;20.466;2023-02-01T14:26:46;21.95;;;9.07;;
66179;SDS011;52986;44.028;20.466;2023-02-01T14:31:48;20.27;;;9.57;;
66179;SDS011;52986;44.028;20.466;2023-02-01T14:37:01;27.20;;;10.27;;
66179;SDS011;52986;44.028;20.466;2023-02-01T14:39:30;18.60;;;7.18;;
66179;SDS011;52986;44.028;20.466;2023-02-01T14:42:00;16.92;;;7.18;;
66179;SDS011;52986;44.028;20.466;2023-02-01T14:44:30;26.15;;;9.45;;
66179;SDS011;52986;44.028;20.466;2023-02-01T14:58:14;12.82;;;4.93;;
66179;SDS011;52986;44.028;20.466;2023-02-01T15:00:59;14.77;;;5.25;;
66179;SDS011;52986;44.028;20.466;2023-02-01T15:09:14;17.83;;;7.07;;
66179;SDS011;52986;44.028;20.466;2023-02-01T15:14:35;15.15;;;6.13;;
66179;SDS011;52986;44.028;20.466;2023-02-01T15:17:03;19.20;;;7.95;;
66179;SDS011;52986;44.028;20.466;2023-02-01T15:20:01;21.77;;;8.77;;
66179;SDS011;52986;44.028;20.466;2023-02-01T15:22:29;20.50;;;7.93;;
66179;SDS011;52986;44.028;20.466;2023-02-01T15:24:56;20.20;;;7.82;;
66179;SDS011;52986;44.028;20.466;2023-02-01T15:27:23;24.30;;;9.20;;
66179;SDS011;52986;44.028;20.466;2023-02-01T15:29:49;30.00;;;12.57;;
66179;SDS011;52986;44.028;20.466;2023-02-01T15:32:28;36.53;;;13.43;;
66179;SDS011;52986;44.028;20.466;2023-02-01T15:34:58;36.30;;;14.38;;
66179;SDS011;52986;44.028;20.466;2023-02-01T15:37:27;30.63;;;14.20;;
66179;SDS011;52986;44.028;20.466;2023-02-01T15:42:34;35.03;;;11.55;;
66179;SDS011;52986;44.028;20.466;2023-02-01T15:45:01;35.53;;;13.18;;
66179;SDS011;52986;44.028;20.466;2023-02-01T15:47:28;36.47;;;12.15;;
66179;SDS011;52986;44.028;20.466;2023-02-01T15:49:57;31.65;;;7.97;;
66179;SDS011;52986;44.028;20.466;2023-02-01T15:55:05;38.92;;;8.95;;
66179;SDS011;52986;44.028;20.466;2023-02-01T15:57:51;34.90;;;10.82;;
66179;SDS011;52986;44.028;20.466;2023-02-01T16:00:21;41.00;;;11.38;;
66179;SDS011;52986;44.028;20.466;2023-02-01T16:08:16;30.33;;;8.65;;
66179;SDS011;52986;44.028;20.466;2023-02-01T16:10:47;37.08;;;12.60;;
66179;SDS011;52986;44.028;20.466;2023-02-01T16:13:15;87.07;;;37.65;;
66179;SDS011;52986;44.028;20.466;2023-02-01T16:15:41;117.97;;;44.50;;
66179;SDS011;52986;44.028;20.466;2023-02-01T16:18:07;103.55;;;42.88;;
66179;SDS011;52986;44.028;20.466;2023-02-01T16:20:34;87.22;;;35.60;;
66179;SDS011;52986;44.028;20.466;2023-02-01T16:23:01;88.85;;;38.55;;
66179;SDS011;52986;44.028;20.466;2023-02-01T16:25:27;79.03;;;37.05;;
66179;SDS011;52986;44.028;20.466;2023-02-01T16:27:52;71.80;;;31.02;;
66179;SDS011;52986;44.028;20.466;2023-02-01T16:30:18;54.33;;;24.73;;
66179;SDS011;52986;44.028;20.466;2023-02-01T16:32:48;60.30;;;26.52;;
66179;SDS011;52986;44.028;20.466;2023-02-01T16:35:22;58.75;;;27.10;;
66179;SDS011;52986;44.028;20.466;2023-02-01T16:37:50;68.15;;;32.10;;
66179;SDS011;52986;44.028;20.466;2023-02-01T16:40:15;73.20;;;32.90;;
66179;SDS011;52986;44.028;20.466;2023-02-01T16:42:42;62.00;;;27.85;;
66179;SDS011;52986;44.028;20.466;2023-02-01T16:45:08;55.65;;;25.52;;
66179;SDS011;52986;44.028;20.466;2023-02-01T16:47:35;50.78;;;24.38;;
66179;SDS011;52986;44.028;20.466;2023-02-01T16:50:03;55.42;;;23.55;;
66179;SDS011;52986;44.028;20.466;2023-02-01T16:52:28;45.47;;;20.90;;
66179;SDS011;52986;44.028;20.466;2023-02-01T16:54:54;44.47;;;20.02;;
66179;SDS011;52986;44.028;20.466;2023-02-01T16:57:20;42.97;;;18.98;;
66179;SDS011;52986;44.028;20.466;2023-02-01T16:59:50;48.92;;;19.70;;
66179;SDS011;52986;44.028;20.466;2023-02-01T17:02:17;41.60;;;20.35;;
66179;SDS011;52986;44.028;20.466;2023-02-01T17:04:46;44.00;;;19.60;;
66179;SDS011;52986;44.028;20.466;2023-02-01T17:07:17;49.22;;;22.58;;
66179;SDS011;52986;44.028;20.466;2023-02-01T17:09:44;51.85;;;23.67;;
66179;SDS011;52986;44.028;20.466;2023-02-01T17:12:22;51.03;;;23.48;;
66179;SDS011;52986;44.028;20.466;2023-02-01T17:14:50;44.88;;;19.20;;
66179;SDS011;52986;44.028;20.466;2023-02-01T17:17:16;47.28;;;21.30;;
66179;SDS011;52986;44.028;20.466;2023-02-01T17:19:48;49.03;;;24.05;;
66179;SDS011;52986;44.028;20.466;2023-02-01T17:22:17;42.85;;;21.05;;
66179;SDS011;52986;44.028;20.466;2023-02-01T17:24:43;42.58;;;19.75;;
66179;SDS011;52986;44.028;20.466;2023-02-01T17:27:09;42.50;;;19.75;;
66179;SDS011;52986;44.028;20.466;2023-02-01T17:29:34;44.35;;;19.92;;
66179;SDS011;52986;44.028;20.466;2023-02-01T17:32:00;53.53;;;23.60;;